sensor_id;sensor_type;location;lat;lon;timestamp;P1;durP1;ratioP1;P2;durP2;ratioP2
11817;SDS011;5966;52.402;5.322;2023-09-19T00:01:24;5.13;;;1.80;;
11817;SDS011;5966;52.402;5.322;2023-09-19T00:03:55;4.80;;;1.70;;
11817;SDS011;5966;52.402;5.322;2023-09-19T00:06:37;9.20;;;1.63;;
11817;SDS011;5966;52.402;5.322;2023-09-19T00:09:08;4.13;;;1.63;;
11817;SDS011;5966;52.402;5.322;2023-09-19T00:11:38;5.27;;;1.70;;
11817;SDS011;5966;52.402;5.322;2023-09-19T00:14:07;4.57;;;1.57;;
11817;SDS011;5966;52.402;5.322;2023-09-19T00:16:40;5.77;;;1.60;;
11817;SDS011;5966;52.402;5.322;2023-09-19T00:19:16;4.80;;;1.47;;
11817;SDS011;5966;52.402;5.322;2023-09-19T00:21:47;3.50;;;1.50;;
11817;SDS011;5966;52.402;5.322;2023-09-19T00:24:29;4.83;;;1.40;;
11817;SDS011;5966;52.402;5.322;2023-09-19T00:26:59;5.50;;;1.83;;
11817;SDS011;5966;52.402;5.322;2023-09-19T00:29:30;5.37;;;1.63;;
11817;SDS011;5966;52.402;5.322;2023-09-19T00:31:59;4.43;;;1.47;;
11817;SDS011;5966;52.402;5.322;2023-09-19T00:34:30;4.50;;;1.80;;
11817;SDS011;5966;52.402;5.322;2023-09-19T00:37:00;7.33;;;1.93;;
11817;SDS011;5966;52.402;5.322;2023-09-19T00:39:31;3.73;;;1.50;;
11817;SDS011;5966;52.402;5.322;2023-09-19T00:42:04;7.67;;;1.83;;
11817;SDS011;5966;52.402;5.322;2023-09-19T00:44:34;3.47;;;1.40;;
11817;SDS011;5966;52.402;5.322;2023-09-19T00:47:17;7.13;;;1.90;;
11817;SDS011;5966;52.402;5.322;2023-09-19T00:49:52;5.03;;;1.67;;
11817;SDS011;5966;52.402;5.322;2023-09-19T00:52:35;2.47;;;1.20;;
11817;SDS011;5966;52.402;5.322;2023-09-19T00:55:12;5.27;;;1.53;;
11817;SDS011;5966;52.402;5.322;2023-09-19T00:57:56;2.17;;;1.20;;
11817;SDS011;5966;52.402;5.322;2023-09-19T01:00:25;2.27;;;1.40;;
11817;SDS011;5966;52.402;5.322;2023-09-19T01:03:07;4.80;;;1.67;;
11817;SDS011;5966;52.402;5.322;2023-09-19T01:05:38;4.30;;;1.80;;
11817;SDS011;5966;52.402;5.322;2023-09-19T01:08:08;6.17;;;1.57;;
11817;SDS011;5966;52.402;5.322;2023-09-19T01:10:38;4.77;;;1.50;;
11817;SDS011;5966;52.402;5.322;2023-09-19T01:13:40;5.63;;;1.33;;
11817;SDS011;5966;52.402;5.322;2023-09-19T01:16:25;4.13;;;1.43;;
11817;SDS011;5966;52.402;5.322;2023-09-19T01:19:02;6.70;;;1.70;;
11817;SDS011;5966;52.402;5.322;2023-09-19T01:21:43;5.43;;;1.50;;
11817;SDS011;5966;52.402;5.322;2023-09-19T01:24:34;8.63;;;2.00;;
11817;SDS011;5966;52.402;5.322;2023-09-19T01:27:32;7.70;;;1.77;;
11817;SDS011;5966;52.402;5.322;2023-09-19T01:30:24;6.90;;;1.70;;
11817;SDS011;5966;52.402;5.322;2023-09-19T01:32:57;6.27;;;1.50;;
11817;SDS011;5966;52.402;5.322;2023-09-19T01:35:30;4.27;;;1.63;;
11817;SDS011;5966;52.402;5.322;2023-09-19T01:38:20;4.40;;;1.33;;
11817;SDS011;5966;52.402;5.322;2023-09-19T01:40:49;6.20;;;2.20;;
11817;SDS011;5966;52.402;5.322;2023-09-19T01:43:31;4.13;;;1.70;;
11817;SDS011;5966;52.402;5.322;2023-09-19T01:46:08;7.63;;;1.60;;
11817;SDS011;5966;52.402;5.322;2023-09-19T01:48:46;3.30;;;1.10;;
11817;SDS011;5966;52.402;5.322;2023-09-19T01:51:26;6.80;;;1.60;;
11817;SDS011;5966;52.402;5.322;2023-09-19T01:54:16;4.03;;;1.30;;
11817;SDS011;5966;52.402;5.322;2023-09-19T01:57:24;4.03;;;1.33;;
11817;SDS011;5966;52.402;5.322;2023-09-19T01:59:57;4.43;;;2.10;;
11817;SDS011;5966;52.402;5.322;2023-09-19T02:02:46;6.00;;;1.47;;
11817;SDS011;5966;52.402;5.322;2023-09-19T02:05:47;6.83;;;1.50;;
11817;SDS011;5966;52.402;5.322;2023-09-19T02:08:21;7.33;;;1.70;;
11817;SDS011;5966;52.402;5.322;2023-09-19T02:10:51;7.50;;;1.47;;
11817;SDS011;5966;52.402;5.322;2023-09-19T02:13:20;4.67;;;1.80;;
11817;SDS011;5966;52.402;5.322;2023-09-19T02:15:50;5.37;;;1.90;;
11817;SDS011;5966;52.402;5.322;2023-09-19T02:24:51;6.60;;;1.60;;
11817;SDS011;5966;52.402;5.322;2023-09-19T02:27:47;7.37;;;1.67;;
11817;SDS011;5966;52.402;5.322;2023-09-19T02:30:42;2.70;;;1.30;;
11817;SDS011;5966;52.402;5.322;2023-09-19T02:33:38;3.37;;;1.47;;
11817;SDS011;5966;52.402;5.322;2023-09-19T02:36:08;3.43;;;1.37;;
11817;SDS011;5966;52.402;5.322;2023-09-19T02:38:38;4.37;;;1.40;;
11817;SDS011;5966;52.402;5.322;2023-09-19T02:41:06;6.83;;;1.57;;
11817;SDS011;5966;52.402;5.322;2023-09-19T02:43:37;8.30;;;1.60;;
11817;SDS011;5966;52.402;5.322;2023-09-19T02:46:06;5.67;;;1.80;;
11817;SDS011;5966;52.402;5.322;2023-09-19T02:48:34;6.37;;;1.40;;
11817;SDS011;5966;52.402;5.322;2023-09-19T02:51:03;5.63;;;1.57;;
11817;SDS011;5966;52.402;5.322;2023-09-19T02:53:31;4.47;;;1.63;;
11817;SDS011;5966;52.402;5.322;2023-09-19T02:56:02;4.70;;;2.10;;
11817;SDS011;5966;52.402;5.322;2023-09-19T02:58:30;12.20;;;3.63;;
11817;SDS011;5966;52.402;5.322;2023-09-19T03:01:11;5.43;;;1.77;;
11817;SDS011;5966;52.402;5.322;2023-09-19T03:03:41;7.50;;;2.03;;
11817;SDS011;5966;52.402;5.322;2023-09-19T03:06:09;6.67;;;1.87;;
11817;SDS011;5966;52.402;5.322;2023-09-19T03:08:41;5.70;;;1.90;;
11817;SDS011;5966;52.402;5.322;2023-09-19T03:11:11;6.17;;;2.00;;
11817;SDS011;5966;52.402;5.322;2023-09-19T03:13:41;5.63;;;2.10;;
11817;SDS011;5966;52.402;5.322;2023-09-19T03:21:29;6.30;;;2.00;;
11817;SDS011;5966;52.402;5.322;2023-09-19T03:23:57;7.60;;;1.97;;
11817;SDS011;5966;52.402;5.322;2023-09-19T03:26:27;6.50;;;2.10;;
11817;SDS011;5966;52.402;5.322;2023-09-19T03:28:57;10.57;;;2.10;;
11817;SDS011;5966;52.402;5.322;2023-09-19T03:32:27;6.93;;;2.00;;
11817;SDS011;5966;52.402;5.322;2023-09-19T03:38:10;4.97;;;1.80;;
11817;SDS011;5966;52.402;5.322;2023-09-19T03:40:39;8.80;;;2.30;;
11817;SDS011;5966;52.402;5.322;2023-09-19T03:43:10;6.43;;;2.07;;
11817;SDS011;5966;52.402;5.322;2023-09-19T03:45:39;5.90;;;1.87;;
11817;SDS011;5966;52.402;5.322;2023-09-19T03:48:13;5.93;;;1.60;;
11817;SDS011;5966;52.402;5.322;2023-09-19T03:51:06;7.90;;;2.00;;
11817;SDS011;5966;52.402;5.322;2023-09-19T03:53:34;6.63;;;1.80;;
11817;SDS011;5966;52.402;5.322;2023-09-19T03:56:18;4.97;;;1.80;;
11817;SDS011;5966;52.402;5.322;2023-09-19T03:58:48;5.40;;;2.17;;
11817;SDS011;5966;52.402;5.322;2023-09-19T04:01:16;6.00;;;1.93;;
11817;SDS011;5966;52.402;5.322;2023-09-19T04:03:45;7.07;;;1.97;;
11817;SDS011;5966;52.402;5.322;2023-09-19T04:06:14;7.90;;;2.20;;
11817;SDS011;5966;52.402;5.322;2023-09-19T04:08:43;12.47;;;1.83;;
11817;SDS011;5966;52.402;5.322;2023-09-19T04:11:12;8.10;;;2.67;;
11817;SDS011;5966;52.402;5.322;2023-09-19T04:13:40;6.27;;;2.33;;
11817;SDS011;5966;52.402;5.322;2023-09-19T04:16:10;7.20;;;1.87;;
11817;SDS011;5966;52.402;5.322;2023-09-19T04:18:39;8.13;;;1.90;;
11817;SDS011;5966;52.402;5.322;2023-09-19T04:21:14;5.83;;;1.77;;
11817;SDS011;5966;52.402;5.322;2023-09-19T04:23:42;6.77;;;2.10;;
11817;SDS011;5966;52.402;5.322;2023-09-19T04:26:11;7.50;;;1.90;;
11817;SDS011;5966;52.402;5.322;2023-09-19T04:28:51;8.13;;;2.10;;
11817;SDS011;5966;52.402;5.322;2023-09-19T04:31:21;4.20;;;1.93;;
11817;SDS011;5966;52.402;5.322;2023-09-19T04:33:49;7.07;;;1.70;;
11817;SDS011;5966;52.402;5.322;2023-09-19T04:36:17;7.27;;;2.03;;
11817;SDS011;5966;52.402;5.322;2023-09-19T04:39:01;5.83;;;1.90;;
11817;SDS011;5966;52.402;5.322;2023-09-19T04:41:31;8.10;;;2.17;;
11817;SDS011;5966;52.402;5.322;2023-09-19T04:44:00;6.17;;;1.70;;
11817;SDS011;5966;52.402;5.322;2023-09-19T04:46:30;7.17;;;1.83;;
11817;SDS011;5966;52.402;5.322;2023-09-19T04:48:58;8.47;;;2.10;;
11817;SDS011;5966;52.402;5.322;2023-09-19T04:51:26;6.33;;;2.63;;
11817;SDS011;5966;52.402;5.322;2023-09-19T04:53:59;6.53;;;1.73;;
11817;SDS011;5966;52.402;5.322;2023-09-19T04:56:27;5.87;;;1.80;;
11817;SDS011;5966;52.402;5.322;2023-09-19T04:58:56;7.50;;;2.30;;
11817;SDS011;5966;52.402;5.322;2023-09-19T05:01:27;6.17;;;1.70;;
11817;SDS011;5966;52.402;5.322;2023-09-19T05:03:57;4.83;;;2.00;;
11817;SDS011;5966;52.402;5.322;2023-09-19T05:06:25;5.00;;;1.80;;
11817;SDS011;5966;52.402;5.322;2023-09-19T05:08:53;7.63;;;2.27;;
11817;SDS011;5966;52.402;5.322;2023-09-19T05:11:22;8.17;;;2.10;;
11817;SDS011;5966;52.402;5.322;2023-09-19T05:13:50;6.07;;;1.60;;
11817;SDS011;5966;52.402;5.322;2023-09-19T05:16:20;7.90;;;1.70;;
11817;SDS011;5966;52.402;5.322;2023-09-19T05:18:48;8.30;;;1.90;;
11817;SDS011;5966;52.402;5.322;2023-09-19T05:21:20;12.27;;;2.10;;
11817;SDS011;5966;52.402;5.322;2023-09-19T05:23:51;8.53;;;1.97;;
11817;SDS011;5966;52.402;5.322;2023-09-19T05:26:21;7.03;;;2.30;;
11817;SDS011;5966;52.402;5.322;2023-09-19T05:28:49;7.30;;;2.07;;
11817;SDS011;5966;52.402;5.322;2023-09-19T05:31:20;6.40;;;1.90;;
11817;SDS011;5966;52.402;5.322;2023-09-19T05:33:49;4.90;;;1.90;;
11817;SDS011;5966;52.402;5.322;2023-09-19T05:36:22;8.87;;;2.13;;
11817;SDS011;5966;52.402;5.322;2023-09-19T05:38:50;7.03;;;2.23;;
11817;SDS011;5966;52.402;5.322;2023-09-19T05:41:32;5.47;;;1.73;;
11817;SDS011;5966;52.402;5.322;2023-09-19T05:44:03;7.47;;;1.80;;
11817;SDS011;5966;52.402;5.322;2023-09-19T05:46:33;7.47;;;2.00;;
11817;SDS011;5966;52.402;5.322;2023-09-19T05:49:01;6.10;;;1.90;;
11817;SDS011;5966;52.402;5.322;2023-09-19T05:51:31;8.63;;;2.30;;
11817;SDS011;5966;52.402;5.322;2023-09-19T05:53:59;9.30;;;2.17;;
11817;SDS011;5966;52.402;5.322;2023-09-19T05:56:28;6.20;;;1.80;;
11817;SDS011;5966;52.402;5.322;2023-09-19T05:58:59;5.87;;;1.93;;
11817;SDS011;5966;52.402;5.322;2023-09-19T06:01:29;6.30;;;1.83;;
11817;SDS011;5966;52.402;5.322;2023-09-19T06:03:59;7.57;;;2.30;;
11817;SDS011;5966;52.402;5.322;2023-09-19T06:06:27;7.93;;;2.13;;
11817;SDS011;5966;52.402;5.322;2023-09-19T06:08:58;7.30;;;2.17;;
11817;SDS011;5966;52.402;5.322;2023-09-19T06:11:26;8.57;;;2.40;;
11817;SDS011;5966;52.402;5.322;2023-09-19T06:14:01;6.43;;;1.93;;
11817;SDS011;5966;52.402;5.322;2023-09-19T06:16:31;9.83;;;2.03;;
11817;SDS011;5966;52.402;5.322;2023-09-19T06:19:02;8.63;;;1.97;;
11817;SDS011;5966;52.402;5.322;2023-09-19T06:21:35;6.90;;;1.73;;
11817;SDS011;5966;52.402;5.322;2023-09-19T06:24:05;6.97;;;2.03;;
11817;SDS011;5966;52.402;5.322;2023-09-19T06:26:34;6.07;;;1.67;;
11817;SDS011;5966;52.402;5.322;2023-09-19T06:29:02;5.33;;;1.73;;
11817;SDS011;5966;52.402;5.322;2023-09-19T06:31:36;6.07;;;2.13;;
11817;SDS011;5966;52.402;5.322;2023-09-19T06:34:17;4.20;;;2.07;;
11817;SDS011;5966;52.402;5.322;2023-09-19T06:36:45;4.63;;;1.70;;
11817;SDS011;5966;52.402;5.322;2023-09-19T06:39:20;8.03;;;2.33;;
11817;SDS011;5966;52.402;5.322;2023-09-19T06:41:53;6.73;;;2.20;;
11817;SDS011;5966;52.402;5.322;2023-09-19T06:44:36;8.20;;;2.57;;
11817;SDS011;5966;52.402;5.322;2023-09-19T06:47:26;6.50;;;2.40;;
11817;SDS011;5966;52.402;5.322;2023-09-19T06:50:05;9.13;;;2.03;;
11817;SDS011;5966;52.402;5.322;2023-09-19T06:52:54;5.50;;;1.87;;
11817;SDS011;5966;52.402;5.322;2023-09-19T06:55:26;7.67;;;2.47;;
11817;SDS011;5966;52.402;5.322;2023-09-19T06:58:00;8.87;;;2.60;;
11817;SDS011;5966;52.402;5.322;2023-09-19T07:00:28;5.70;;;1.80;;
11817;SDS011;5966;52.402;5.322;2023-09-19T07:02:58;9.47;;;2.07;;
11817;SDS011;5966;52.402;5.322;2023-09-19T07:05:31;9.00;;;2.20;;
11817;SDS011;5966;52.402;5.322;2023-09-19T07:08:05;9.37;;;2.00;;
11817;SDS011;5966;52.402;5.322;2023-09-19T07:10:35;6.17;;;2.00;;
11817;SDS011;5966;52.402;5.322;2023-09-19T07:13:04;12.33;;;2.33;;
11817;SDS011;5966;52.402;5.322;2023-09-19T07:15:35;10.20;;;2.83;;
11817;SDS011;5966;52.402;5.322;2023-09-19T07:18:06;8.50;;;1.80;;
11817;SDS011;5966;52.402;5.322;2023-09-19T07:20:37;6.53;;;2.40;;
11817;SDS011;5966;52.402;5.322;2023-09-19T07:23:06;11.33;;;2.67;;
11817;SDS011;5966;52.402;5.322;2023-09-19T07:25:34;5.67;;;2.20;;
11817;SDS011;5966;52.402;5.322;2023-09-19T07:28:17;8.40;;;2.50;;
11817;SDS011;5966;52.402;5.322;2023-09-19T07:30:50;7.37;;;2.33;;
11817;SDS011;5966;52.402;5.322;2023-09-19T07:33:22;9.37;;;2.50;;
11817;SDS011;5966;52.402;5.322;2023-09-19T07:35:53;10.27;;;2.60;;
11817;SDS011;5966;52.402;5.322;2023-09-19T07:38:21;11.17;;;2.47;;
11817;SDS011;5966;52.402;5.322;2023-09-19T07:40:59;11.17;;;2.77;;
11817;SDS011;5966;52.402;5.322;2023-09-19T07:43:30;7.97;;;2.33;;
11817;SDS011;5966;52.402;5.322;2023-09-19T07:46:04;7.93;;;2.40;;
11817;SDS011;5966;52.402;5.322;2023-09-19T07:48:35;11.67;;;2.80;;
11817;SDS011;5966;52.402;5.322;2023-09-19T07:51:04;9.17;;;2.40;;
11817;SDS011;5966;52.402;5.322;2023-09-19T07:53:50;6.07;;;2.30;;
11817;SDS011;5966;52.402;5.322;2023-09-19T07:56:20;9.70;;;2.20;;
11817;SDS011;5966;52.402;5.322;2023-09-19T07:58:49;10.20;;;2.40;;
11817;SDS011;5966;52.402;5.322;2023-09-19T08:01:18;9.37;;;2.47;;
11817;SDS011;5966;52.402;5.322;2023-09-19T08:03:47;9.60;;;2.80;;
11817;SDS011;5966;52.402;5.322;2023-09-19T08:06:18;12.10;;;4.00;;
11817;SDS011;5966;52.402;5.322;2023-09-19T08:08:46;8.03;;;2.53;;
11817;SDS011;5966;52.402;5.322;2023-09-19T08:14:07;7.87;;;2.47;;
11817;SDS011;5966;52.402;5.322;2023-09-19T08:16:41;11.93;;;3.07;;
11817;SDS011;5966;52.402;5.322;2023-09-19T08:19:13;8.67;;;2.47;;
11817;SDS011;5966;52.402;5.322;2023-09-19T08:21:42;9.57;;;2.53;;
11817;SDS011;5966;52.402;5.322;2023-09-19T08:24:13;8.23;;;2.83;;
11817;SDS011;5966;52.402;5.322;2023-09-19T08:26:44;10.10;;;2.50;;
11817;SDS011;5966;52.402;5.322;2023-09-19T08:29:12;8.30;;;2.47;;
11817;SDS011;5966;52.402;5.322;2023-09-19T08:31:41;9.97;;;2.63;;
11817;SDS011;5966;52.402;5.322;2023-09-19T08:34:11;7.27;;;2.30;;
11817;SDS011;5966;52.402;5.322;2023-09-19T08:36:39;10.80;;;2.80;;
11817;SDS011;5966;52.402;5.322;2023-09-19T08:39:09;8.63;;;2.90;;
11817;SDS011;5966;52.402;5.322;2023-09-19T08:41:40;10.20;;;2.80;;
11817;SDS011;5966;52.402;5.322;2023-09-19T08:44:09;11.23;;;2.97;;
11817;SDS011;5966;52.402;5.322;2023-09-19T08:46:39;10.27;;;2.67;;
11817;SDS011;5966;52.402;5.322;2023-09-19T08:51:45;11.60;;;2.60;;
11817;SDS011;5966;52.402;5.322;2023-09-19T09:00:44;11.20;;;3.27;;
11817;SDS011;5966;52.402;5.322;2023-09-19T09:05:53;8.97;;;3.00;;
11817;SDS011;5966;52.402;5.322;2023-09-19T09:08:25;9.77;;;3.17;;
11817;SDS011;5966;52.402;5.322;2023-09-19T09:10:55;8.83;;;2.43;;
11817;SDS011;5966;52.402;5.322;2023-09-19T09:13:24;12.07;;;2.80;;
11817;SDS011;5966;52.402;5.322;2023-09-19T09:15:54;11.63;;;2.80;;
11817;SDS011;5966;52.402;5.322;2023-09-19T09:18:22;9.30;;;2.90;;
11817;SDS011;5966;52.402;5.322;2023-09-19T09:20:50;9.07;;;2.30;;
11817;SDS011;5966;52.402;5.322;2023-09-19T09:23:28;11.90;;;2.87;;
11817;SDS011;5966;52.402;5.322;2023-09-19T09:26:00;9.57;;;2.63;;
11817;SDS011;5966;52.402;5.322;2023-09-19T09:28:32;12.93;;;2.87;;
11817;SDS011;5966;52.402;5.322;2023-09-19T09:31:04;9.90;;;2.50;;
11817;SDS011;5966;52.402;5.322;2023-09-19T09:33:36;10.97;;;2.70;;
11817;SDS011;5966;52.402;5.322;2023-09-19T09:36:06;7.27;;;2.47;;
11817;SDS011;5966;52.402;5.322;2023-09-19T09:38:42;10.97;;;2.43;;
11817;SDS011;5966;52.402;5.322;2023-09-19T09:41:12;6.80;;;2.47;;
11817;SDS011;5966;52.402;5.322;2023-09-19T09:43:53;8.87;;;2.60;;
11817;SDS011;5966;52.402;5.322;2023-09-19T09:46:27;8.47;;;2.33;;
11817;SDS011;5966;52.402;5.322;2023-09-19T09:49:13;7.93;;;2.80;;
11817;SDS011;5966;52.402;5.322;2023-09-19T09:51:43;10.80;;;2.40;;
11817;SDS011;5966;52.402;5.322;2023-09-19T09:54:16;6.20;;;2.27;;
11817;SDS011;5966;52.402;5.322;2023-09-19T09:56:53;7.70;;;2.47;;
11817;SDS011;5966;52.402;5.322;2023-09-19T09:59:44;13.20;;;2.57;;
11817;SDS011;5966;52.402;5.322;2023-09-19T10:02:29;10.90;;;2.93;;
11817;SDS011;5966;52.402;5.322;2023-09-19T10:05:20;11.57;;;3.10;;
11817;SDS011;5966;52.402;5.322;2023-09-19T10:07:55;10.73;;;2.40;;
11817;SDS011;5966;52.402;5.322;2023-09-19T10:10:31;9.67;;;2.83;;
11817;SDS011;5966;52.402;5.322;2023-09-19T10:13:23;11.93;;;2.87;;
11817;SDS011;5966;52.402;5.322;2023-09-19T10:15:58;10.40;;;2.33;;
11817;SDS011;5966;52.402;5.322;2023-09-19T10:21:20;10.90;;;3.63;;
11817;SDS011;5966;52.402;5.322;2023-09-19T10:23:50;7.87;;;2.37;;
11817;SDS011;5966;52.402;5.322;2023-09-19T10:26:27;11.50;;;2.47;;
11817;SDS011;5966;52.402;5.322;2023-09-19T10:29:16;11.13;;;2.77;;
11817;SDS011;5966;52.402;5.322;2023-09-19T10:31:59;7.20;;;2.20;;
11817;SDS011;5966;52.402;5.322;2023-09-19T10:34:32;10.37;;;2.57;;
11817;SDS011;5966;52.402;5.322;2023-09-19T10:37:15;11.50;;;2.80;;
11817;SDS011;5966;52.402;5.322;2023-09-19T10:39:45;7.30;;;2.40;;
11817;SDS011;5966;52.402;5.322;2023-09-19T10:42:16;5.13;;;2.20;;
11817;SDS011;5966;52.402;5.322;2023-09-19T10:47:32;10.57;;;2.30;;
11817;SDS011;5966;52.402;5.322;2023-09-19T10:50:06;12.70;;;3.13;;
11817;SDS011;5966;52.402;5.322;2023-09-19T10:52:54;6.23;;;2.23;;
11817;SDS011;5966;52.402;5.322;2023-09-19T10:55:34;10.10;;;2.47;;
11817;SDS011;5966;52.402;5.322;2023-09-19T10:58:04;7.40;;;2.17;;
11817;SDS011;5966;52.402;5.322;2023-09-19T11:00:51;10.53;;;2.30;;
11817;SDS011;5966;52.402;5.322;2023-09-19T11:03:21;8.43;;;2.30;;
11817;SDS011;5966;52.402;5.322;2023-09-19T11:06:00;7.53;;;2.30;;
11817;SDS011;5966;52.402;5.322;2023-09-19T11:11:45;9.90;;;2.27;;
11817;SDS011;5966;52.402;5.322;2023-09-19T11:17:32;7.03;;;1.80;;
11817;SDS011;5966;52.402;5.322;2023-09-19T11:23:17;8.30;;;1.93;;
11817;SDS011;5966;52.402;5.322;2023-09-19T11:25:50;6.13;;;1.87;;
11817;SDS011;5966;52.402;5.322;2023-09-19T11:28:28;9.67;;;1.90;;
11817;SDS011;5966;52.402;5.322;2023-09-19T11:31:00;7.23;;;1.93;;
11817;SDS011;5966;52.402;5.322;2023-09-19T11:43:45;7.83;;;1.67;;
11817;SDS011;5966;52.402;5.322;2023-09-19T11:46:18;4.10;;;1.63;;
11817;SDS011;5966;52.402;5.322;2023-09-19T11:48:48;6.70;;;1.47;;
11817;SDS011;5966;52.402;5.322;2023-09-19T11:51:26;4.83;;;1.73;;
11817;SDS011;5966;52.402;5.322;2023-09-19T11:53:55;6.60;;;1.53;;
11817;SDS011;5966;52.402;5.322;2023-09-19T11:56:26;5.17;;;1.43;;
11817;SDS011;5966;52.402;5.322;2023-09-19T11:58:57;5.03;;;1.60;;
11817;SDS011;5966;52.402;5.322;2023-09-19T12:01:28;7.43;;;1.73;;
11817;SDS011;5966;52.402;5.322;2023-09-19T12:04:01;4.00;;;1.40;;
11817;SDS011;5966;52.402;5.322;2023-09-19T12:06:32;6.43;;;1.57;;
11817;SDS011;5966;52.402;5.322;2023-09-19T12:09:02;7.87;;;1.77;;
11817;SDS011;5966;52.402;5.322;2023-09-19T12:11:41;2.87;;;1.30;;
11817;SDS011;5966;52.402;5.322;2023-09-19T12:14:13;5.77;;;1.43;;
11817;SDS011;5966;52.402;5.322;2023-09-19T12:16:51;5.83;;;1.30;;
11817;SDS011;5966;52.402;5.322;2023-09-19T12:19:23;6.13;;;1.80;;
11817;SDS011;5966;52.402;5.322;2023-09-19T12:22:03;3.50;;;1.50;;
11817;SDS011;5966;52.402;5.322;2023-09-19T12:24:33;5.03;;;1.70;;
11817;SDS011;5966;52.402;5.322;2023-09-19T12:27:06;6.23;;;1.50;;
11817;SDS011;5966;52.402;5.322;2023-09-19T12:29:51;5.27;;;1.60;;
11817;SDS011;5966;52.402;5.322;2023-09-19T12:33:17;3.87;;;1.20;;
11817;SDS011;5966;52.402;5.322;2023-09-19T12:35:51;5.70;;;1.60;;
11817;SDS011;5966;52.402;5.322;2023-09-19T12:38:24;7.73;;;1.97;;
11817;SDS011;5966;52.402;5.322;2023-09-19T12:41:09;5.00;;;1.90;;
11817;SDS011;5966;52.402;5.322;2023-09-19T12:43:39;3.23;;;1.47;;
11817;SDS011;5966;52.402;5.322;2023-09-19T12:46:13;5.17;;;1.70;;
11817;SDS011;5966;52.402;5.322;2023-09-19T12:49:41;5.63;;;1.57;;
11817;SDS011;5966;52.402;5.322;2023-09-19T12:52:46;4.10;;;1.47;;
11817;SDS011;5966;52.402;5.322;2023-09-19T12:56:18;4.53;;;1.60;;
11817;SDS011;5966;52.402;5.322;2023-09-19T12:59:03;4.33;;;1.40;;
11817;SDS011;5966;52.402;5.322;2023-09-19T13:01:36;4.90;;;1.63;;
11817;SDS011;5966;52.402;5.322;2023-09-19T13:04:10;3.23;;;1.60;;
11817;SDS011;5966;52.402;5.322;2023-09-19T13:10:33;4.87;;;1.53;;
11817;SDS011;5966;52.402;5.322;2023-09-19T13:17:13;5.77;;;1.50;;
11817;SDS011;5966;52.402;5.322;2023-09-19T13:19:48;4.70;;;1.50;;
11817;SDS011;5966;52.402;5.322;2023-09-19T13:22:42;5.50;;;1.60;;
11817;SDS011;5966;52.402;5.322;2023-09-19T13:25:20;4.50;;;1.53;;
11817;SDS011;5966;52.402;5.322;2023-09-19T13:32:03;4.17;;;1.37;;
11817;SDS011;5966;52.402;5.322;2023-09-19T13:34:40;5.60;;;1.30;;
11817;SDS011;5966;52.402;5.322;2023-09-19T13:37:10;4.60;;;1.27;;
11817;SDS011;5966;52.402;5.322;2023-09-19T13:49:30;1.30;;;0.90;;
11817;SDS011;5966;52.402;5.322;2023-09-19T13:51:59;4.50;;;1.50;;
11817;SDS011;5966;52.402;5.322;2023-09-19T13:54:40;3.17;;;1.50;;
11817;SDS011;5966;52.402;5.322;2023-09-19T13:57:24;4.60;;;1.20;;
11817;SDS011;5966;52.402;5.322;2023-09-19T13:59:53;6.40;;;1.50;;
11817;SDS011;5966;52.402;5.322;2023-09-19T14:02:21;3.07;;;1.23;;
11817;SDS011;5966;52.402;5.322;2023-09-19T14:04:51;8.63;;;1.67;;
11817;SDS011;5966;52.402;5.322;2023-09-19T14:07:26;3.10;;;1.40;;
11817;SDS011;5966;52.402;5.322;2023-09-19T14:09:57;3.20;;;1.43;;
11817;SDS011;5966;52.402;5.322;2023-09-19T14:12:40;4.97;;;1.40;;
11817;SDS011;5966;52.402;5.322;2023-09-19T14:15:16;5.13;;;1.93;;
11817;SDS011;5966;52.402;5.322;2023-09-19T14:17:44;3.67;;;1.33;;
11817;SDS011;5966;52.402;5.322;2023-09-19T14:20:15;4.33;;;1.73;;
11817;SDS011;5966;52.402;5.322;2023-09-19T14:22:43;4.50;;;1.27;;
11817;SDS011;5966;52.402;5.322;2023-09-19T14:25:14;3.23;;;1.40;;
11817;SDS011;5966;52.402;5.322;2023-09-19T14:27:42;2.93;;;1.37;;
11817;SDS011;5966;52.402;5.322;2023-09-19T14:30:12;4.53;;;1.50;;
11817;SDS011;5966;52.402;5.322;2023-09-19T14:32:43;5.73;;;1.73;;
11817;SDS011;5966;52.402;5.322;2023-09-19T14:35:15;6.47;;;1.67;;
11817;SDS011;5966;52.402;5.322;2023-09-19T14:37:47;7.23;;;1.67;;
11817;SDS011;5966;52.402;5.322;2023-09-19T14:40:19;5.73;;;1.97;;
11817;SDS011;5966;52.402;5.322;2023-09-19T14:43:03;3.50;;;1.73;;
11817;SDS011;5966;52.402;5.322;2023-09-19T14:45:35;4.13;;;1.70;;
11817;SDS011;5966;52.402;5.322;2023-09-19T14:48:06;4.33;;;1.43;;
11817;SDS011;5966;52.402;5.322;2023-09-19T14:50:43;5.67;;;2.27;;
11817;SDS011;5966;52.402;5.322;2023-09-19T14:53:18;6.47;;;2.10;;
11817;SDS011;5966;52.402;5.322;2023-09-19T14:55:53;10.57;;;1.97;;
11817;SDS011;5966;52.402;5.322;2023-09-19T14:58:35;5.00;;;1.80;;
11817;SDS011;5966;52.402;5.322;2023-09-19T15:01:08;3.80;;;1.93;;
11817;SDS011;5966;52.402;5.322;2023-09-19T15:03:38;5.47;;;1.90;;
11817;SDS011;5966;52.402;5.322;2023-09-19T15:06:09;3.33;;;1.67;;
11817;SDS011;5966;52.402;5.322;2023-09-19T15:08:41;6.83;;;2.23;;
11817;SDS011;5966;52.402;5.322;2023-09-19T15:11:12;3.83;;;1.93;;
11817;SDS011;5966;52.402;5.322;2023-09-19T15:13:45;6.10;;;1.80;;
11817;SDS011;5966;52.402;5.322;2023-09-19T15:16:23;4.03;;;1.90;;
11817;SDS011;5966;52.402;5.322;2023-09-19T15:19:06;3.37;;;1.80;;
11817;SDS011;5966;52.402;5.322;2023-09-19T15:21:41;3.47;;;1.67;;
11817;SDS011;5966;52.402;5.322;2023-09-19T15:24:14;5.27;;;2.10;;
11817;SDS011;5966;52.402;5.322;2023-09-19T15:26:44;7.33;;;2.13;;
11817;SDS011;5966;52.402;5.322;2023-09-19T15:29:15;3.97;;;1.70;;
11817;SDS011;5966;52.402;5.322;2023-09-19T15:31:44;4.77;;;1.73;;
11817;SDS011;5966;52.402;5.322;2023-09-19T15:34:13;8.77;;;2.87;;
11817;SDS011;5966;52.402;5.322;2023-09-19T15:36:47;6.07;;;2.30;;
11817;SDS011;5966;52.402;5.322;2023-09-19T15:39:15;4.83;;;1.73;;
11817;SDS011;5966;52.402;5.322;2023-09-19T15:41:57;5.17;;;1.93;;
11817;SDS011;5966;52.402;5.322;2023-09-19T15:44:28;6.07;;;1.90;;
11817;SDS011;5966;52.402;5.322;2023-09-19T15:47:00;6.53;;;2.20;;
11817;SDS011;5966;52.402;5.322;2023-09-19T15:49:29;5.10;;;2.20;;
11817;SDS011;5966;52.402;5.322;2023-09-19T15:52:07;7.70;;;2.30;;
11817;SDS011;5966;52.402;5.322;2023-09-19T15:54:41;5.60;;;2.10;;
11817;SDS011;5966;52.402;5.322;2023-09-19T15:57:11;3.73;;;1.93;;
11817;SDS011;5966;52.402;5.322;2023-09-19T15:59:42;9.70;;;2.70;;
11817;SDS011;5966;52.402;5.322;2023-09-19T16:02:15;4.67;;;2.17;;
11817;SDS011;5966;52.402;5.322;2023-09-19T16:04:48;5.93;;;2.23;;
11817;SDS011;5966;52.402;5.322;2023-09-19T16:07:21;6.63;;;2.40;;
11817;SDS011;5966;52.402;5.322;2023-09-19T16:09:53;5.17;;;2.00;;
11817;SDS011;5966;52.402;5.322;2023-09-19T16:12:53;7.60;;;2.20;;
11817;SDS011;5966;52.402;5.322;2023-09-19T16:15:27;7.90;;;2.60;;
11817;SDS011;5966;52.402;5.322;2023-09-19T16:18:12;9.80;;;2.30;;
11817;SDS011;5966;52.402;5.322;2023-09-19T16:20:40;7.67;;;3.27;;
11817;SDS011;5966;52.402;5.322;2023-09-19T16:23:15;4.30;;;1.87;;
11817;SDS011;5966;52.402;5.322;2023-09-19T16:25:45;7.30;;;2.20;;
11817;SDS011;5966;52.402;5.322;2023-09-19T16:28:15;6.43;;;2.07;;
11817;SDS011;5966;52.402;5.322;2023-09-19T16:30:52;7.13;;;2.27;;
11817;SDS011;5966;52.402;5.322;2023-09-19T16:33:23;10.63;;;2.80;;
11817;SDS011;5966;52.402;5.322;2023-09-19T16:36:06;9.23;;;2.43;;
11817;SDS011;5966;52.402;5.322;2023-09-19T16:38:52;4.07;;;2.13;;
11817;SDS011;5966;52.402;5.322;2023-09-19T16:41:22;11.37;;;2.73;;
11817;SDS011;5966;52.402;5.322;2023-09-19T16:43:51;7.60;;;1.83;;
11817;SDS011;5966;52.402;5.322;2023-09-19T16:46:20;7.33;;;2.10;;
11817;SDS011;5966;52.402;5.322;2023-09-19T16:48:51;6.03;;;2.27;;
11817;SDS011;5966;52.402;5.322;2023-09-19T16:51:34;4.77;;;1.60;;
11817;SDS011;5966;52.402;5.322;2023-09-19T16:54:15;5.83;;;2.00;;
11817;SDS011;5966;52.402;5.322;2023-09-19T16:56:55;5.30;;;1.90;;
11817;SDS011;5966;52.402;5.322;2023-09-19T16:59:45;4.57;;;1.97;;
11817;SDS011;5966;52.402;5.322;2023-09-19T17:02:15;4.73;;;1.80;;